Aeroporto :
LOGIN :

Iscrizione | Disclaimer

   EN    FR    IT 

 










Sommario :    VFR   VFR Marginale   IFR   IFR Intensivo   IFR Molto Intensivo
Visibilità : 
Base nubi : 
>= 8 km
>= 3000ft
5 / 8 km
1000 / 3000 ft
1500m / 5 km
500 / 1000 ft
800 / 1500m
200 / 500 ft
< 800m
< 200 ft
Simboli :   Temporali  Nebbia  Neve Forte  Precipitazioni Forti  Vento > 20 kt
SIGMETs :   Varie  Temporali  Ghiacco  Turbolenza  Onda orograficha  Ceneri Vulcaniche






- Altitudine del aeroporto : 202 ft
- Codice IATA : SQZ


EGXP - RAF Scampton

ULTIMO METAR :
  • 051550Z AUTO 22021KT 9999 // FEW050/// BKN090/// 07/06 Q1008

METARs OBSOLETI :
  • 051450Z 22021KT 9999 -RA FEW028 BKN070 07/05 Q1009 RMK BLU

TAF TAF EGXP
Valido dal 05 a 15 ore il 05 a 18 ore UTC


051352Z 0515/0518 23018G28KT 9999 BKN025
BECMG 0515/0518 BKN015
PROB40
TEMPO 0516/0518 7000 -RA SCT012



MetMap, La meteo Aeronautica in un colpo d'occhio ! - Copyright ORBIFLY Dicembre 2007 - Disclaimer

ORBIFLY MET'MAP TEAM :

Programmazione e sviluppo : Alexandra Zaïnal
Concezione : Baudouin d'Aumeries
Aiuto per la programmazione : Marc-Olivier Méhu
Supporto tecnico e logistico : Manuel Goepfert
Aiuto per la traduzione : Arnaldo La Scala

Contatto : metmap@orbifly.com




FONTI E CREDITI :

   NOAA